Time;durP1;ratioP1;P1;durP2;ratioP2;P2;SDS_P1;SDS_P2;PMS_P1;PMS_P2;Temp;Humidity;BMP_temperature;BMP_pressure;BME280_temperature;BME280_humidity;BME280_pressure;Samples;Min_cycle;Max_cycle;Signal;HPM_P1;HPM_P2
2021/03/04 00:01:24;;;;;;;66.73;51.60;;;;;;;3.35;79.74;100515.82;123591;1105;104816;-82
2021/03/04 00:03:51;;;;;;;83.85;54.00;;;;;;;3.45;79.65;100508.87;123480;1105;104249;-83
2021/03/04 00:06:18;;;;;;;79.33;55.93;;;;;;;3.56;79.49;100508.02;123488;1106;104302;-82
2021/03/04 00:08:47;;;;;;;68.57;51.10;;;;;;;3.62;78.92;100495.75;123584;1105;104325;-81
2021/03/04 00:11:13;;;;;;;74.70;51.63;;;;;;;3.70;78.51;100493.14;123361;1105;104275;-81
2021/03/04 00:13:41;;;;;;;80.93;55.23;;;;;;;3.78;78.10;100488.77;123389;1106;104370;-81
2021/03/04 00:16:07;;;;;;;82.13;55.57;;;;;;;3.87;78.34;100487.06;123541;1105;104185;-80
2021/03/04 00:18:34;;;;;;;80.83;52.20;;;;;;;3.92;77.53;100482.66;123573;1105;104291;-82
2021/03/04 00:21:15;;;;;;;76.30;53.43;;;;;;;3.99;77.41;100482.68;123529;1105;105127;-81
2021/03/04 00:23:57;;;;;;;77.32;54.80;;;;;;;4.10;77.00;100479.19;123405;1105;104316;-81
2021/03/04 00:26:31;;;;;;;63.58;49.77;;;;;;;4.15;76.77;100478.31;123532;1105;104341;-82
2021/03/04 00:29:16;;;;;;;75.28;52.65;;;;;;;4.19;76.76;100473.94;123469;1105;104219;-82
2021/03/04 00:31:48;;;;;;;75.12;51.85;;;;;;;4.24;76.51;100464.28;123449;1105;104673;-83
2021/03/04 00:34:15;;;;;;;77.15;55.15;;;;;;;4.31;76.38;100458.12;123422;1105;104377;-81
2021/03/04 00:36:42;;;;;;;72.83;50.73;;;;;;;4.38;75.97;100459.00;123513;1105;104207;-82
2021/03/04 00:39:09;;;;;;;66.60;48.13;;;;;;;4.42;76.14;100451.97;123466;1105;104219;-82
2021/03/04 00:41:38;;;;;;;68.28;47.73;;;;;;;4.42;75.82;100455.48;123493;1106;104207;-81
2021/03/04 00:44:17;;;;;;;58.50;45.53;;;;;;;4.47;76.03;100444.94;123461;1105;104200;-82
2021/03/04 00:47:02;;;;;;;70.53;48.60;;;;;;;4.57;75.74;100443.17;123551;1105;104258;-83
2021/03/04 00:49:48;;;;;;;73.92;51.70;;;;;;;4.62;75.15;100442.27;123177;1109;104322;-82
2021/03/04 00:52:38;;;;;;;63.73;46.13;;;;;;;4.65;74.70;100438.75;123123;1109;104399;-82
2021/03/04 00:55:20;;;;;;;59.83;45.83;;;;;;;4.67;74.92;100429.09;122805;1109;104376;-81
2021/03/04 00:57:53;;;;;;;69.00;48.05;;;;;;;4.72;74.82;100418.52;122829;1109;104405;-82
2021/03/04 01:00:24;;;;;;;62.33;45.48;;;;;;;4.76;74.23;100414.98;122739;1109;104457;-82
2021/03/04 01:03:04;;;;;;;62.53;46.77;;;;;;;4.82;74.37;100414.98;122757;1109;104294;-87
2021/03/04 01:05:40;;;;;;;68.00;46.40;;;;;;;4.81;74.14;100405.30;122807;1109;104392;-81
2021/03/04 01:08:16;;;;;;;70.78;42.48;;;;;;;4.83;74.25;100407.06;122946;1109;104434;-83
2021/03/04 01:10:47;;;;;;;59.27;44.15;;;;;;;4.89;74.12;100406.16;123016;1109;104415;-81
2021/03/04 01:13:44;;;;;;;60.63;45.00;;;;;;;4.93;73.62;100396.48;123322;1109;104418;-83
2021/03/04 01:16:11;;;;;;;55.83;43.63;;;;;;;4.96;73.65;100391.21;123306;1108;104995;-83
2021/03/04 01:18:39;;;;;;;58.73;42.60;;;;;;;4.95;73.48;100389.45;123450;1108;104325;-82
2021/03/04 01:21:13;;;;;;;63.63;44.30;;;;;;;4.99;73.13;100388.55;123277;1109;104495;-82
2021/03/04 01:23:41;;;;;;;60.00;44.00;;;;;;;4.99;72.94;100381.50;123401;1109;104444;-83
2021/03/04 01:26:08;;;;;;;62.00;44.80;;;;;;;4.97;73.13;100377.11;123207;1109;104412;-83
2021/03/04 01:28:38;;;;;;;62.67;46.47;;;;;;;4.97;72.82;100377.11;123402;1105;104312;-81
2021/03/04 01:31:12;;;;;;;69.50;45.20;;;;;;;4.97;73.03;100370.09;123230;1105;104239;-83
2021/03/04 01:33:59;;;;;;;60.90;42.30;;;;;;;4.99;72.45;100363.02;123253;1105;104284;-81
2021/03/04 01:36:26;;;;;;;68.57;46.53;;;;;;;5.01;72.68;100366.55;123237;1105;105011;-83
2021/03/04 01:38:53;;;;;;;66.90;42.60;;;;;;;5.03;72.27;100359.48;123400;1105;104421;-82
2021/03/04 01:41:20;;;;;;;63.75;42.95;;;;;;;5.05;72.52;100361.25;123367;1105;104389;-82
2021/03/04 01:43:49;;;;;;;59.07;41.83;;;;;;;5.03;72.45;100355.98;123591;1105;104425;-82
2021/03/04 01:46:15;;;;;;;56.17;40.30;;;;;;;5.06;72.41;100360.37;123548;1106;104268;-82
2021/03/04 01:48:50;;;;;;;61.83;40.70;;;;;;;5.08;72.22;100351.56;123539;1106;104299;-82
2021/03/04 01:51:22;;;;;;;57.78;42.90;;;;;;;5.07;72.44;100336.60;123533;1105;104402;-83
2021/03/04 01:53:59;;;;;;;56.68;40.25;;;;;;;5.06;72.54;100340.12;123390;1106;104476;-83
2021/03/04 01:56:36;;;;;;;56.50;40.03;;;;;;;5.05;71.95;100334.85;123528;1106;104153;-81
2021/03/04 01:59:12;;;;;;;62.93;42.80;;;;;;;5.09;72.50;100336.59;123485;1105;104287;-82
2021/03/04 02:01:40;;;;;;;62.88;41.33;;;;;;;5.09;72.47;100334.84;123445;1105;104964;-82
2021/03/04 02:04:06;;;;;;;63.33;41.20;;;;;;;5.09;71.89;100331.31;123486;1105;104230;-82
2021/03/04 02:06:55;;;;;;;64.07;42.10;;;;;;;5.10;71.93;100325.16;123211;1105;104321;-82
2021/03/04 02:09:25;;;;;;;59.95;39.80;;;;;;;5.08;72.08;100318.98;123367;1106;104281;-82
2021/03/04 02:12:11;;;;;;;65.85;39.58;;;;;;;5.09;71.83;100313.73;123321;1105;104213;-84
2021/03/04 02:14:59;;;;;;;60.57;40.20;;;;;;;5.08;71.65;100313.70;123421;1105;104390;-83
2021/03/04 02:17:44;;;;;;;57.67;40.00;;;;;;;5.06;72.14;100308.44;123232;1109;104381;-84
2021/03/04 02:20:41;;;;;;;53.68;38.33;;;;;;;5.06;72.13;100300.52;123233;1109;105076;-82
2021/03/04 02:23:56;;;;;;;49.00;35.43;;;;;;;5.09;71.60;100294.36;122994;1112;104511;-83
2021/03/04 02:27:05;;;;;;;51.20;35.10;;;;;;;5.11;71.66;100288.19;122771;1112;104508;-82
2021/03/04 02:29:48;;;;;;;63.92;39.80;;;;;;;5.10;72.04;100289.06;123044;1109;104379;-82
2021/03/04 02:32:32;;;;;;;51.50;34.50;;;;;;;5.08;72.09;100282.93;122738;1109;104348;-83
2021/03/04 02:35:05;;;;;;;53.40;37.00;;;;;;;5.08;71.73;100292.59;122470;1112;104584;-81
2021/03/04 02:37:37;;;;;;;45.12;35.85;;;;;;;5.10;71.76;100286.42;122767;1109;104517;-81
2021/03/04 02:40:05;;;;;;;49.37;36.17;;;;;;;5.08;71.93;100282.93;122632;1109;105598;-82
2021/03/04 02:42:32;;;;;;;52.65;36.80;;;;;;;5.10;72.08;100277.64;122583;1109;105079;-85
2021/03/04 02:44:59;;;;;;;43.93;33.37;;;;;;;5.07;71.77;100270.61;122983;1109;104374;-83
2021/03/04 02:47:42;;;;;;;46.07;34.37;;;;;;;5.11;71.74;100276.76;123046;1109;104472;-85
2021/03/04 02:50:10;;;;;;;54.27;37.67;;;;;;;5.13;71.68;100272.33;123584;1109;104502;-82
2021/03/04 02:52:53;;;;;;;47.20;33.80;;;;;;;5.16;71.71;100265.27;122947;1109;104536;-83
2021/03/04 02:55:21;;;;;;;51.37;36.27;;;;;;;5.18;71.85;100262.62;122912;1110;104386;-84
2021/03/04 02:57:48;;;;;;;51.08;33.33;;;;;;;5.19;71.87;100259.10;122912;1109;104642;-81
2021/03/04 03:00:30;;;;;;;47.77;32.30;;;;;;;5.22;71.52;100252.92;122852;1109;104420;-82
2021/03/04 03:03:15;;;;;;;48.33;31.70;;;;;;;5.23;71.52;100260.83;122900;1109;104203;-82
2021/03/04 03:05:58;;;;;;;41.50;34.35;;;;;;;5.26;71.73;100259.94;122918;1109;104540;-81
2021/03/04 03:08:41;;;;;;;47.13;35.07;;;;;;;5.27;71.75;100251.14;122840;1112;104817;-83
2021/03/04 03:11:09;;;;;;;54.37;36.77;;;;;;;5.26;71.58;100250.23;122928;1112;104386;-82
2021/03/04 03:13:56;;;;;;;43.53;32.63;;;;;;;5.31;71.59;100245.81;122856;1112;104581;-82
2021/03/04 03:16:27;;;;;;;55.90;36.10;;;;;;;5.32;71.57;100233.50;122525;1112;104594;-83
2021/03/04 03:19:09;;;;;;;48.85;33.35;;;;;;;5.34;71.23;100239.63;122476;1112;104377;-82
2021/03/04 03:21:39;;;;;;;52.00;34.73;;;;;;;5.31;71.23;100229.10;122672;1109;104469;-82
2021/03/04 03:24:21;;;;;;;44.13;32.50;;;;;;;5.33;71.43;100230.84;122601;1108;104823;-82
2021/03/04 03:26:49;;;;;;;42.03;33.73;;;;;;;5.33;71.45;100225.56;122754;1108;104434;-85
2021/03/04 03:29:30;;;;;;;48.87;35.50;;;;;;;5.33;71.25;100222.02;122816;1108;105208;-83
2021/03/04 03:32:03;;;;;;;51.50;33.88;;;;;;;5.34;71.28;100226.42;122947;1106;104258;-83
2021/03/04 03:34:31;;;;;;;44.23;30.83;;;;;;;5.32;71.28;100217.66;123192;1105;104450;-83
2021/03/04 03:37:04;;;;;;;47.40;31.07;;;;;;;5.34;71.30;100213.22;123134;1105;104255;-82
2021/03/04 03:39:51;;;;;;;53.60;33.55;;;;;;;5.34;71.39;100214.12;124037;1105;104223;-84
2021/03/04 03:42:38;;;;;;;46.05;34.30;;;;;;;5.36;71.42;100208.81;124234;1105;104261;-85
2021/03/04 03:45:24;;;;;;;48.03;33.33;;;;;;;5.40;71.00;100209.65;124232;1105;104277;-79
2021/03/04 03:48:17;;;;;;;45.08;33.08;;;;;;;5.38;71.44;100201.74;124623;1105;104486;-84
2021/03/04 03:50:59;;;;;;;44.95;33.15;;;;;;;5.44;70.92;100199.06;124118;1109;104889;-82
2021/03/04 03:53:32;;;;;;;51.53;34.37;;;;;;;5.45;71.09;100203.47;124078;1108;104426;-84
2021/03/04 03:56:00;;;;;;;45.57;33.77;;;;;;;5.45;70.93;100195.54;123263;1106;104376;-82
2021/03/04 03:58:30;;;;;;;49.20;33.50;;;;;;;5.46;71.19;100184.06;123534;1105;104339;-82
2021/03/04 04:00:58;;;;;;;49.53;34.80;;;;;;;5.44;71.12;100179.67;123583;1105;105529;-82
2021/03/04 04:03:29;;;;;;;48.03;32.80;;;;;;;5.49;70.71;100180.52;123432;1105;104290;-82
2021/03/04 04:05:58;;;;;;;49.23;35.17;;;;;;;5.49;70.94;100180.52;123498;1105;104418;-83
2021/03/04 04:08:28;;;;;;;51.88;33.70;;;;;;;5.48;70.65;100177.02;123449;1106;104293;-83
2021/03/04 04:10:56;;;;;;;50.43;35.33;;;;;;;5.46;70.94;100176.13;123536;1105;104447;-81
2021/03/04 04:13:26;;;;;;;47.30;32.13;;;;;;;5.44;71.10;100172.65;123512;1105;104386;-85
2021/03/04 04:15:53;;;;;;;44.57;33.20;;;;;;;5.44;70.87;100170.01;123474;1106;104287;-82
2021/03/04 04:18:20;;;;;;;46.70;33.63;;;;;;;5.46;70.99;100168.21;123547;1105;104249;-82
2021/03/04 04:20:50;;;;;;;49.05;35.90;;;;;;;5.45;70.80;100169.13;123661;1105;104379;-84
2021/03/04 04:23:20;;;;;;;46.18;33.85;;;;;;;5.44;70.87;100169.11;123622;1105;104214;-82
2021/03/04 04:25:53;;;;;;;42.93;32.85;;;;;;;5.40;70.62;100168.29;123565;1106;104405;-85
2021/03/04 04:28:39;;;;;;;50.00;35.53;;;;;;;5.39;70.86;100168.31;123367;1105;104254;-81
2021/03/04 04:31:11;;;;;;;48.17;33.37;;;;;;;5.39;70.94;100161.25;123483;1105;104306;-85
2021/03/04 04:33:45;;;;;;;43.23;32.73;;;;;;;5.36;70.96;100162.15;123453;1105;104377;-81
2021/03/04 04:36:17;;;;;;;45.65;32.10;;;;;;;5.36;70.83;100151.59;123520;1105;104347;-82
2021/03/04 04:38:44;;;;;;;50.90;32.97;;;;;;;5.37;71.01;100155.09;123423;1105;104223;-82
2021/03/04 04:41:11;;;;;;;47.53;32.53;;;;;;;5.41;71.16;100148.92;123433;1105;104210;-83
2021/03/04 04:43:42;;;;;;;46.10;34.80;;;;;;;5.43;70.88;100146.26;123451;1105;105037;-82
2021/03/04 04:46:28;;;;;;;49.15;34.15;;;;;;;5.45;71.23;100147.10;123480;1105;104258;-82
2021/03/04 04:49:15;;;;;;;49.08;32.13;;;;;;;5.41;71.05;100145.38;123372;1105;104463;-83
2021/03/04 04:51:55;;;;;;;52.90;33.17;;;;;;;5.45;70.81;100148.00;123359;1105;104248;-86
2021/03/04 04:54:25;;;;;;;46.67;32.70;;;;;;;5.41;70.82;100143.64;123585;1105;104313;-85
2021/03/04 04:56:58;;;;;;;42.73;31.17;;;;;;;5.38;70.98;100137.50;123688;1105;104644;-82
2021/03/04 04:59:34;;;;;;;45.47;31.23;;;;;;;5.39;70.87;100141.90;123461;1105;104242;-88
2021/03/04 05:02:03;;;;;;;47.17;32.60;;;;;;;5.37;70.85;100139.25;123484;1105;104341;-83
2021/03/04 05:04:46;;;;;;;39.05;30.12;;;;;;;5.36;71.24;100134.88;123372;1105;104424;-83
2021/03/04 05:07:17;;;;;;;40.70;30.35;;;;;;;5.41;71.06;100127.80;123479;1105;104373;-82
2021/03/04 05:09:50;;;;;;;54.17;35.73;;;;;;;5.41;71.18;100129.53;123333;1106;104255;-82
2021/03/04 05:12:21;;;;;;;48.13;34.13;;;;;;;5.40;70.89;100123.39;123488;1106;104912;-82
2021/03/04 05:14:53;;;;;;;47.75;32.65;;;;;;;5.41;71.17;100122.52;123545;1105;104274;-81
2021/03/04 05:17:21;;;;;;;44.27;32.98;;;;;;;5.45;71.19;100118.95;123545;1105;104402;-81
2021/03/04 05:19:54;;;;;;;44.75;29.85;;;;;;;5.47;71.11;100118.92;123552;1105;104376;-82
2021/03/04 05:22:21;;;;;;;42.20;32.45;;;;;;;5.47;71.18;100106.58;123486;1105;104339;-81
2021/03/04 05:24:48;;;;;;;53.65;34.50;;;;;;;5.46;71.21;100107.47;123508;1105;104408;-83
2021/03/04 05:27:15;;;;;;;48.92;31.93;;;;;;;5.45;70.96;100104.84;123475;1105;104710;-84
2021/03/04 05:29:41;;;;;;;54.95;34.40;;;;;;;5.45;71.01;100103.09;123406;1105;104365;-81
2021/03/04 05:32:08;;;;;;;45.00;34.50;;;;;;;5.49;71.17;100096.89;123532;1104;105239;-83
2021/03/04 05:34:41;;;;;;;48.17;35.87;;;;;;;5.51;70.85;100091.59;123455;1105;104252;-83
2021/03/04 05:37:07;;;;;;;54.65;36.93;;;;;;;5.52;71.07;100094.20;123394;1105;104376;-81
2021/03/04 05:39:34;;;;;;;44.73;34.97;;;;;;;5.51;71.00;100095.09;123451;1105;104336;-82
2021/03/04 05:42:05;;;;;;;52.73;36.40;;;;;;;5.53;70.92;100095.97;123429;1105;104191;-83
2021/03/04 05:44:32;;;;;;;53.80;38.95;;;;;;;5.52;70.88;100096.84;123395;1105;104766;-81
2021/03/04 05:47:13;;;;;;;48.40;36.53;;;;;;;5.55;70.96;100098.59;123184;1105;104325;-81
2021/03/04 05:50:03;;;;;;;48.08;38.75;;;;;;;5.56;71.07;100095.06;123558;1105;104229;-83
2021/03/04 05:52:44;;;;;;;49.17;37.47;;;;;;;5.57;71.11;100088.00;123532;1105;104567;-81
2021/03/04 05:55:11;;;;;;;50.28;33.10;;;;;;;5.55;70.71;100100.36;123335;1105;104453;-83
2021/03/04 05:57:38;;;;;;;52.97;37.80;;;;;;;5.51;70.94;100105.66;123425;1105;104382;-82
2021/03/04 06:00:06;;;;;;;48.70;34.33;;;;;;;5.50;70.94;100090.73;123334;1106;104191;-85
2021/03/04 06:02:33;;;;;;;42.45;28.95;;;;;;;5.48;71.06;100094.27;123475;1105;104877;-80
2021/03/04 06:05:00;;;;;;;39.92;30.70;;;;;;;5.46;71.19;100088.98;123567;1105;104310;-82
2021/03/04 06:07:27;;;;;;;43.80;33.57;;;;;;;5.51;71.42;100099.52;123435;1105;104239;-81
2021/03/04 06:09:54;;;;;;;44.47;30.77;;;;;;;5.57;71.19;100093.28;123298;1105;104652;-81
2021/03/04 06:12:20;;;;;;;51.48;34.10;;;;;;;5.60;71.15;100095.88;123537;1105;104820;-83
2021/03/04 06:14:47;;;;;;;41.30;29.77;;;;;;;5.56;71.07;100099.45;123529;1105;104393;-82
2021/03/04 06:17:15;;;;;;;40.87;30.07;;;;;;;5.61;71.01;100098.53;123380;1106;104358;-82
2021/03/04 06:20:14;;;;;;;50.52;35.52;;;;;;;5.67;71.00;100102.86;123621;1105;104290;-82
2021/03/04 06:22:46;;;;;;;34.70;28.77;;;;;;;5.67;70.87;100098.44;123432;1105;104721;-82
2021/03/04 06:25:28;;;;;;;43.83;32.23;;;;;;;5.66;70.82;100101.11;123178;1109;104990;-84
2021/03/04 06:27:55;;;;;;;36.95;28.40;;;;;;;5.64;71.35;100100.27;123432;1105;104239;-83
2021/03/04 06:30:22;;;;;;;36.40;29.37;;;;;;;5.68;71.18;100099.34;123443;1105;105073;-83
2021/03/04 06:33:10;;;;;;;39.73;29.40;;;;;;;5.67;71.23;100093.16;123588;1105;104389;-82
2021/03/04 06:35:42;;;;;;;46.25;30.20;;;;;;;5.69;71.35;100101.06;123258;1105;104879;-81
2021/03/04 06:38:17;;;;;;;41.77;29.63;;;;;;;5.74;71.66;100104.53;123364;1105;104242;-82
2021/03/04 06:40:45;;;;;;;41.92;29.35;;;;;;;5.78;71.39;100108.89;123395;1105;104258;-84
2021/03/04 06:43:23;;;;;;;38.10;29.35;;;;;;;5.86;71.36;100101.77;123551;1105;105066;-82
2021/03/04 06:45:50;;;;;;;40.52;30.15;;;;;;;5.91;71.52;100109.62;123387;1105;104245;-82
2021/03/04 06:48:22;;;;;;;41.00;29.30;;;;;;;5.94;71.45;100101.66;123448;1105;105222;-83
2021/03/04 06:50:59;;;;;;;44.47;29.00;;;;;;;5.99;71.55;100115.73;123478;1105;104396;-82
2021/03/04 06:53:49;;;;;;;41.80;28.00;;;;;;;6.05;71.35;100104.23;123553;1105;104366;-82
2021/03/04 06:56:28;;;;;;;37.87;27.80;;;;;;;6.07;71.10;100104.20;123556;1104;104226;-88
2021/03/04 06:59:09;;;;;;;41.98;29.07;;;;;;;6.05;71.23;100096.30;123356;1105;104358;-82
2021/03/04 07:01:39;;;;;;;40.08;30.82;;;;;;;6.07;71.29;100096.27;123114;1105;104321;-81
2021/03/04 07:04:13;;;;;;;46.60;30.17;;;;;;;6.08;71.58;100093.60;123057;1105;104993;-82
2021/03/04 07:06:41;;;;;;;41.15;30.08;;;;;;;6.08;71.40;100111.22;122907;1105;104230;-81
2021/03/04 07:09:26;;;;;;;38.02;28.70;;;;;;;6.06;71.67;100110.38;122844;1104;104903;-83
2021/03/04 07:11:54;;;;;;;39.35;29.80;;;;;;;6.01;71.77;100115.70;123363;1105;104642;-87
2021/03/04 07:14:26;;;;;;;39.23;28.17;;;;;;;6.00;72.24;100104.27;123529;1106;104249;-84
2021/03/04 07:16:54;;;;;;;35.97;27.53;;;;;;;6.11;71.89;100097.98;123379;1105;104960;-83
2021/03/04 07:19:30;;;;;;;36.48;28.87;;;;;;;6.20;71.85;100119.02;123423;1105;104692;-86
2021/03/04 07:21:57;;;;;;;45.50;33.48;;;;;;;6.26;71.78;100110.98;123465;1104;104373;-85
2021/03/04 07:24:26;;;;;;;47.15;31.15;;;;;;;6.27;71.76;100101.30;123353;1105;104198;-90
2021/03/04 07:27:08;;;;;;;39.73;30.20;;;;;;;6.29;71.87;100103.03;123340;1109;104230;-84
2021/03/04 07:29:37;;;;;;;39.40;29.80;;;;;;;6.42;71.59;100108.14;123161;1109;104419;-85
2021/03/04 07:32:08;;;;;;;43.37;32.13;;;;;;;6.48;71.31;100100.98;123192;1109;104466;-84
2021/03/04 07:34:44;;;;;;;50.58;32.88;;;;;;;6.54;71.25;100105.31;123159;1109;105477;-84
2021/03/04 07:37:29;;;;;;;41.60;33.38;;;;;;;6.50;71.37;100108.89;123511;1109;104214;-88
2021/03/04 07:40:09;;;;;;;44.58;28.00;;;;;;;6.52;71.42;100107.12;123503;1109;104925;-84
2021/03/04 07:42:44;;;;;;;45.53;30.50;;;;;;;6.54;71.44;100113.25;123229;1109;104437;-84
2021/03/04 07:45:14;;;;;;;36.48;28.45;;;;;;;6.55;71.43;100101.77;123301;1109;105765;-85
2021/03/04 07:47:44;;;;;;;40.03;29.55;;;;;;;6.52;71.35;100091.25;123476;1109;104520;-84
2021/03/04 07:50:21;;;;;;;43.28;29.85;;;;;;;6.57;71.16;100096.45;123317;1108;104283;-83
2021/03/04 07:52:49;;;;;;;38.43;28.33;;;;;;;6.62;71.36;100103.42;123285;1109;104377;-87
2021/03/04 07:55:16;;;;;;;41.55;29.77;;;;;;;6.68;70.79;100105.98;123146;1109;104408;-84
2021/03/04 07:57:44;;;;;;;39.00;28.60;;;;;;;6.64;70.88;100101.64;123317;1109;104492;-86
2021/03/04 08:00:14;;;;;;;35.70;27.80;;;;;;;6.65;70.74;100110.44;123072;1109;104364;-85
2021/03/04 08:02:43;;;;;;;40.58;28.25;;;;;;;6.63;70.58;100097.23;123202;1108;104332;-82
2021/03/04 08:05:14;;;;;;;36.87;28.17;;;;;;;6.65;70.40;100100.75;123348;1105;104306;-86
2021/03/04 08:07:52;;;;;;;45.92;29.12;;;;;;;6.66;70.26;100099.86;123342;1105;104399;-84
2021/03/04 08:10:19;;;;;;;44.93;31.65;;;;;;;6.63;70.64;100096.38;123327;1105;105251;-82
2021/03/04 08:13:02;;;;;;;39.92;26.30;;;;;;;6.58;70.32;100107.01;123410;1106;104322;-83
2021/03/04 08:15:32;;;;;;;45.75;32.53;;;;;;;6.59;70.47;100106.12;123209;1106;104450;-83
2021/03/04 08:18:00;;;;;;;40.40;30.40;;;;;;;6.62;69.98;100115.78;123380;1105;104476;-83
2021/03/04 08:20:29;;;;;;;41.17;31.17;;;;;;;6.59;70.16;100100.83;123275;1106;104447;-84
2021/03/04 08:22:58;;;;;;;51.03;34.10;;;;;;;6.60;70.07;100099.94;123270;1106;104351;-83
2021/03/04 08:25:34;;;;;;;42.60;30.40;;;;;;;6.61;70.35;100103.45;123440;1105;104280;-81
2021/03/04 08:28:06;;;;;;;46.63;29.83;;;;;;;6.63;70.03;100102.53;123384;1105;104360;-82
2021/03/04 08:30:37;;;;;;;41.20;31.13;;;;;;;6.62;69.71;100116.65;122995;1105;104345;-83
2021/03/04 08:33:17;;;;;;;40.73;29.63;;;;;;;6.53;69.47;100133.55;122894;1105;104201;-85
2021/03/04 08:35:49;;;;;;;41.87;32.60;;;;;;;6.47;69.58;100124.83;122985;1105;104762;-83
2021/03/04 08:38:21;;;;;;;47.10;34.23;;;;;;;6.43;69.57;100125.77;123073;1105;104460;-83
2021/03/04 08:41:02;;;;;;;47.00;30.63;;;;;;;6.42;70.11;100124.01;122984;1105;104536;-84
2021/03/04 08:43:40;;;;;;;41.83;32.15;;;;;;;6.43;70.00;100123.98;123084;1105;104320;-83
2021/03/04 08:46:07;;;;;;;39.23;31.27;;;;;;;6.48;69.97;100123.94;123311;1105;104393;-84
2021/03/04 08:48:42;;;;;;;43.30;31.05;;;;;;;6.52;68.86;100122.99;123657;1105;104313;-88
2021/03/04 08:51:09;;;;;;;45.88;33.00;;;;;;;6.55;68.51;100124.72;123950;1105;104329;-82
2021/03/04 08:53:41;;;;;;;57.98;40.35;;;;;;;6.53;67.28;100133.55;123960;1106;105226;-82
2021/03/04 08:56:10;;;;;;;51.58;37.73;;;;;;;6.57;67.29;100138.78;124098;1105;104140;-82
2021/03/04 08:58:43;;;;;;;48.08;34.90;;;;;;;6.62;67.09;100132.52;123875;1105;104251;-83
2021/03/04 09:01:14;;;;;;;45.80;34.95;;;;;;;6.67;66.96;100133.34;123493;1105;104488;-82
2021/03/04 09:04:05;;;;;;;43.37;33.43;;;;;;;6.67;66.44;100143.06;123634;1105;104261;-83
2021/03/04 09:06:48;;;;;;;50.80;37.25;;;;;;;6.57;67.13;100139.68;123670;1105;104557;-83
2021/03/04 09:09:31;;;;;;;46.00;31.80;;;;;;;6.52;67.66;100150.31;123467;1105;104237;-84
2021/03/04 09:12:06;;;;;;;51.20;35.27;;;;;;;6.47;67.66;100157.43;123846;1105;104316;-83
2021/03/04 09:14:34;;;;;;;49.23;36.93;;;;;;;6.46;68.26;100155.67;123375;1105;104249;-87
2021/03/04 09:17:02;;;;;;;53.58;41.65;;;;;;;6.48;68.05;100153.89;123407;1105;104376;-86
2021/03/04 09:19:52;;;;;;;51.07;39.63;;;;;;;6.40;68.09;100157.52;122987;1108;104447;-85
2021/03/04 09:22:21;;;;;;;55.70;38.43;;;;;;;6.29;68.16;100163.85;123033;1109;104992;-85
2021/03/04 09:24:49;;;;;;;58.90;38.05;;;;;;;6.33;68.50;100162.92;123136;1109;104271;-86
2021/03/04 09:30:07;;;;;;;47.33;37.42;;;;;;;6.18;67.77;100171.92;123215;1108;104405;-84
2021/03/04 09:32:40;;;;;;;57.57;39.03;;;;;;;6.09;67.57;100176.42;123224;1109;105117;-82
2021/03/04 09:35:16;;;;;;;50.13;36.60;;;;;;;6.07;68.40;100165.01;123194;1109;104318;-85
2021/03/04 09:37:44;;;;;;;50.87;37.07;;;;;;;6.09;67.70;100171.13;123235;1109;104986;-86
2021/03/04 09:40:29;;;;;;;47.78;36.10;;;;;;;6.09;68.10;100161.45;123179;1109;104326;-84
2021/03/04 09:42:58;;;;;;;48.13;35.43;;;;;;;6.16;67.77;100164.90;123007;1109;104396;-83
2021/03/04 09:45:26;;;;;;;51.97;37.43;;;;;;;6.11;67.50;100172.87;123052;1109;105035;-86
2021/03/04 09:47:53;;;;;;;47.30;37.00;;;;;;;6.11;67.01;100174.65;123051;1109;104329;-83
2021/03/04 09:50:23;;;;;;;45.40;35.30;;;;;;;6.13;66.85;100180.78;122996;1109;104442;-82
2021/03/04 09:53:04;;;;;;;43.78;32.15;;;;;;;6.14;66.67;100186.05;123012;1109;104569;-85
2021/03/04 09:55:45;;;;;;;41.53;33.80;;;;;;;6.07;66.31;100181.73;123122;1109;104351;-85
2021/03/04 09:58:24;;;;;;;47.30;36.55;;;;;;;6.00;66.29;100190.64;123610;1105;104229;-84
2021/03/04 10:01:05;;;;;;;47.40;35.15;;;;;;;5.92;66.19;100192.43;123291;1105;104200;-84
2021/03/04 10:03:41;;;;;;;44.38;31.97;;;;;;;5.83;66.15;100185.49;123333;1105;104210;-84
2021/03/04 10:06:21;;;;;;;41.45;30.55;;;;;;;5.82;66.55;100184.59;123546;1105;104835;-84
2021/03/04 10:08:53;;;;;;;39.27;30.57;;;;;;;5.85;65.91;100187.23;123601;1106;104143;-84
2021/03/04 10:11:25;;;;;;;53.98;39.38;;;;;;;5.85;66.12;100184.58;123387;1105;104342;-83
2021/03/04 10:13:52;;;;;;;48.40;36.77;;;;;;;5.85;65.96;100187.23;123604;1105;104384;-87
2021/03/04 10:16:18;;;;;;;39.80;32.97;;;;;;;5.74;65.01;100189.09;123389;1105;104706;-83
2021/03/04 10:18:47;;;;;;;44.25;31.30;;;;;;;5.62;65.48;100194.50;123357;1105;104248;-85
2021/03/04 10:21:16;;;;;;;41.40;30.90;;;;;;;5.57;65.87;100194.56;123594;1105;104255;-87
2021/03/04 10:23:47;;;;;;;35.85;27.70;;;;;;;5.62;65.60;100199.78;123419;1105;104252;-83
2021/03/04 10:26:20;;;;;;;40.33;29.10;;;;;;;5.58;65.80;100198.06;123802;1106;104309;-84
2021/03/04 10:28:47;;;;;;;40.10;28.55;;;;;;;5.53;65.70;100201.62;123745;1105;104355;-85
2021/03/04 10:31:18;;;;;;;37.73;30.73;;;;;;;5.52;66.20;100202.50;123846;1105;104447;-84
2021/03/04 10:33:45;;;;;;;41.83;33.77;;;;;;;5.48;65.77;100211.34;123590;1105;104265;-84
2021/03/04 10:36:12;;;;;;;34.92;24.12;;;;;;;5.46;65.96;100210.47;123766;1105;104344;-85
2021/03/04 10:38:38;;;;;;;36.85;28.35;;;;;;;5.45;65.98;100219.31;123670;1106;104434;-84
2021/03/04 10:41:05;;;;;;;40.40;29.00;;;;;;;5.41;66.39;100217.59;123894;1105;104303;-84
2021/03/04 10:43:31;;;;;;;37.77;29.17;;;;;;;5.45;65.91;100213.13;123759;1105;104229;-84
2021/03/04 10:45:58;;;;;;;45.95;31.30;;;;;;;5.41;66.16;100211.41;123704;1105;104306;-82
2021/03/04 10:48:25;;;;;;;46.23;31.12;;;;;;;5.35;66.40;100207.06;123700;1105;104219;-84
2021/03/04 10:50:52;;;;;;;36.98;27.58;;;;;;;5.35;66.12;100209.70;123898;1105;105076;-84
2021/03/04 10:53:22;;;;;;;46.03;30.70;;;;;;;5.32;66.18;100204.45;123586;1105;104515;-84
2021/03/04 10:55:55;;;;;;;40.17;30.97;;;;;;;5.36;66.72;100207.04;123738;1105;104201;-84
2021/03/04 10:58:25;;;;;;;47.83;33.18;;;;;;;5.41;66.45;100206.13;123512;1105;104284;-85
2021/03/04 11:00:53;;;;;;;39.80;29.77;;;;;;;5.40;66.17;100210.55;123611;1104;104329;-84
2021/03/04 11:03:22;;;;;;;43.70;30.20;;;;;;;5.35;66.18;100204.42;123972;1104;104421;-84
2021/03/04 11:05:49;;;;;;;38.45;27.55;;;;;;;5.41;66.30;100212.30;123720;1105;104319;-86
2021/03/04 11:08:17;;;;;;;37.43;28.20;;;;;;;5.38;66.07;100208.80;123499;1105;104251;-83
2021/03/04 11:10:46;;;;;;;37.37;29.70;;;;;;;5.34;66.53;100210.58;123660;1105;104331;-84
2021/03/04 11:13:16;;;;;;;37.45;29.60;;;;;;;5.36;66.59;100212.33;123651;1105;104248;-83
2021/03/04 11:15:43;;;;;;;40.87;31.47;;;;;;;5.39;66.29;100210.56;123576;1105;104478;-82
2021/03/04 11:18:12;;;;;;;38.60;27.17;;;;;;;5.36;66.36;100208.81;123326;1105;104395;-85
2021/03/04 11:20:40;;;;;;;42.80;29.73;;;;;;;5.30;66.43;100191.23;123149;1105;104252;-86
2021/03/04 11:23:07;;;;;;;40.25;27.45;;;;;;;5.42;66.66;100208.75;123330;1105;104262;-84
2021/03/04 11:25:43;;;;;;;35.60;28.10;;;;;;;5.42;66.34;100206.11;123264;1105;104683;-82
2021/03/04 11:28:14;;;;;;;39.20;28.37;;;;;;;5.39;66.41;100206.14;123310;1105;104267;-83
2021/03/04 11:30:42;;;;;;;41.77;29.07;;;;;;;5.40;66.44;100217.57;123148;1105;104239;-85
2021/03/04 11:33:30;;;;;;;39.40;27.63;;;;;;;5.37;66.45;100210.55;122922;1105;104252;-84